This is the latest recevied weather packets stored in our database for station/object KC3ELT-10. If no packets are shown the sender has not sent any weather packets the latest 10 day(s).
| Time | Temp. | Humidity | Pressure | Rain* | Wind** | Luminosity | Snow |
|---|---|---|---|---|---|---|---|
| 1778000279 | 24.44° C | 42% | 1003.7 hPa | 0 mm | 1.79 m/s, 139° | - | - |
| 1777999979 | 24.44° C | 45% | 1003.7 hPa | 0 mm | 2.68 m/s, 186° | - | - |
| 1777999679 | 24.44° C | 46% | 1003.7 hPa | 0 mm | 2.68 m/s, 294° | - | - |
| 1777999379 | 23.89° C | 45% | 1003.8 hPa | 0 mm | 0.89 m/s, 237° | - | - |
| 1777999079 | 24.44° C | 44% | 1003.8 hPa | 0 mm | 5.81 m/s, 281° | - | - |
| 1777998779 | 23.89° C | 45% | 1003.8 hPa | 0 mm | 1.79 m/s, 245° | - | - |
| 1777998479 | 23.89° C | 45% | 1003.8 hPa | 0 mm | 1.79 m/s, 184° | - | - |
| 1777998179 | 23.89° C | 45% | 1003.8 hPa | 0 mm | 2.24 m/s, 224° | - | - |
| 1777997879 | 23.89° C | 44% | 1003.8 hPa | 0 mm | 1.34 m/s, 195° | - | - |
| 1777997579 | 23.89° C | 46% | 1004 hPa | 0 mm | 2.68 m/s, 285° | - | - |
| 1777997279 | 23.33° C | 47% | 1004 hPa | 0 mm | 0.89 m/s, 227° | - | - |
| 1777996979 | 23.89° C | 45% | 1004 hPa | 0 mm | 3.13 m/s, 215° | - | - |
| 1777996679 | 23.33° C | 46% | 1004.1 hPa | 0 mm | 2.68 m/s, 269° | - | - |
| 1777996379 | 23.33° C | 48% | 1004.1 hPa | 0 mm | 4.02 m/s, 265° | - | - |
| 1777996079 | 23.33° C | 45% | 1004.1 hPa | 0 mm | 4.02 m/s, 279° | - | - |
| 1777995779 | 23.33° C | 47% | 1004.3 hPa | 0 mm | 1.34 m/s, 194° | - | - |
| 1777995479 | 23.33° C | 52% | 1004.3 hPa | 0 mm | 2.24 m/s, 276° | - | - |
| 1777995179 | 23.33° C | 48% | 1004.3 hPa | 0 mm | 1.34 m/s, 244° | - | - |
| 1777994879 | 22.78° C | 48% | 1004.3 hPa | 0 mm | 1.79 m/s, 334° | - | - |
| 1777994579 | 22.78° C | 50% | 1004.3 hPa | 0 mm | 5.36 m/s, 271° | - | - |
| 1777994279 | 22.78° C | 51% | 1004.3 hPa | 0 mm | 1.34 m/s, 247° | - | - |
| 1777993979 | 22.22° C | 51% | 1004.4 hPa | 0 mm | 1.34 m/s, 185° | - | - |
| 1777993679 | 22.22° C | 51% | 1004.4 hPa | 0 mm | 0.45 m/s, 261° | - | - |
| 1777993379 | 21.67° C | 53% | 1004.4 hPa | 0 mm | 0.89 m/s, 221° | - | - |
| 1777993079 | 21.67° C | 51% | 1004.5 hPa | 0 mm | 0.45 m/s, 216° | - | - |
* Rain latest hour (hover to see other rain measurements)
** Current wind speed in m/s (hover to see current wind gust speed)